sensor_id;sensor_type;location;lat;lon;timestamp;P1;durP1;ratioP1;P2;durP2;ratioP2
11893;SDS011;6006;49.696;8.662;2023-05-08T00:01:37;6.30;;;4.30;;
11893;SDS011;6006;49.696;8.662;2023-05-08T00:04:04;4.00;;;3.70;;
11893;SDS011;6006;49.696;8.662;2023-05-08T00:06:32;4.47;;;4.07;;
11893;SDS011;6006;49.696;8.662;2023-05-08T00:08:59;4.80;;;4.40;;
11893;SDS011;6006;49.696;8.662;2023-05-08T00:11:25;4.40;;;3.50;;
11893;SDS011;6006;49.696;8.662;2023-05-08T00:13:52;5.63;;;3.83;;
11893;SDS011;6006;49.696;8.662;2023-05-08T00:16:19;3.93;;;3.63;;
11893;SDS011;6006;49.696;8.662;2023-05-08T00:18:46;3.87;;;3.33;;
11893;SDS011;6006;49.696;8.662;2023-05-08T00:21:13;3.47;;;3.20;;
11893;SDS011;6006;49.696;8.662;2023-05-08T00:23:41;3.47;;;3.27;;
11893;SDS011;6006;49.696;8.662;2023-05-08T00:26:08;3.73;;;3.30;;
11893;SDS011;6006;49.696;8.662;2023-05-08T00:28:34;6.37;;;4.23;;
11893;SDS011;6006;49.696;8.662;2023-05-08T00:31:01;4.83;;;3.80;;
11893;SDS011;6006;49.696;8.662;2023-05-08T00:33:28;3.17;;;2.97;;
11893;SDS011;6006;49.696;8.662;2023-05-08T00:35:58;4.27;;;3.70;;
11893;SDS011;6006;49.696;8.662;2023-05-08T00:38:25;3.70;;;3.40;;
11893;SDS011;6006;49.696;8.662;2023-05-08T00:40:56;3.93;;;3.50;;
11893;SDS011;6006;49.696;8.662;2023-05-08T00:43:23;4.43;;;3.70;;
11893;SDS011;6006;49.696;8.662;2023-05-08T00:45:52;4.33;;;3.97;;
11893;SDS011;6006;49.696;8.662;2023-05-08T00:48:20;4.60;;;3.37;;
11893;SDS011;6006;49.696;8.662;2023-05-08T00:50:47;5.20;;;3.90;;
11893;SDS011;6006;49.696;8.662;2023-05-08T00:53:15;4.10;;;3.77;;
11893;SDS011;6006;49.696;8.662;2023-05-08T00:55:42;5.07;;;3.70;;
11893;SDS011;6006;49.696;8.662;2023-05-08T00:58:11;4.43;;;4.13;;
11893;SDS011;6006;49.696;8.662;2023-05-08T01:00:39;3.80;;;3.50;;
11893;SDS011;6006;49.696;8.662;2023-05-08T01:03:09;4.83;;;3.97;;
11893;SDS011;6006;49.696;8.662;2023-05-08T01:05:37;4.33;;;3.93;;
11893;SDS011;6006;49.696;8.662;2023-05-08T01:08:04;4.20;;;3.90;;
11893;SDS011;6006;49.696;8.662;2023-05-08T01:10:32;3.73;;;3.43;;
11893;SDS011;6006;49.696;8.662;2023-05-08T01:13:10;5.07;;;4.57;;
11893;SDS011;6006;49.696;8.662;2023-05-08T01:15:46;4.73;;;4.30;;
11893;SDS011;6006;49.696;8.662;2023-05-08T01:18:18;5.73;;;5.03;;
11893;SDS011;6006;49.696;8.662;2023-05-08T01:20:50;5.00;;;4.23;;
11893;SDS011;6006;49.696;8.662;2023-05-08T01:23:38;4.73;;;4.30;;
11893;SDS011;6006;49.696;8.662;2023-05-08T01:26:34;5.27;;;4.87;;
11893;SDS011;6006;49.696;8.662;2023-05-08T01:32:23;4.90;;;4.50;;
11893;SDS011;6006;49.696;8.662;2023-05-08T01:34:56;5.30;;;4.03;;
11893;SDS011;6006;49.696;8.662;2023-05-08T01:37:36;4.83;;;4.33;;
11893;SDS011;6006;49.696;8.662;2023-05-08T01:40:10;4.60;;;4.07;;
11893;SDS011;6006;49.696;8.662;2023-05-08T01:42:45;4.60;;;4.20;;
11893;SDS011;6006;49.696;8.662;2023-05-08T01:45:17;4.13;;;3.83;;
11893;SDS011;6006;49.696;8.662;2023-05-08T01:47:51;5.57;;;3.97;;
11893;SDS011;6006;49.696;8.662;2023-05-08T01:50:30;4.87;;;4.37;;
11893;SDS011;6006;49.696;8.662;2023-05-08T01:53:02;5.77;;;4.63;;
11893;SDS011;6006;49.696;8.662;2023-05-08T01:55:34;7.47;;;4.60;;
11893;SDS011;6006;49.696;8.662;2023-05-08T01:58:03;4.87;;;4.47;;
11893;SDS011;6006;49.696;8.662;2023-05-08T02:00:32;4.40;;;4.00;;
11893;SDS011;6006;49.696;8.662;2023-05-08T02:03:01;6.20;;;4.37;;
11893;SDS011;6006;49.696;8.662;2023-05-08T02:05:31;5.13;;;4.73;;
11893;SDS011;6006;49.696;8.662;2023-05-08T02:07:59;4.13;;;3.70;;
11893;SDS011;6006;49.696;8.662;2023-05-08T02:10:28;4.93;;;4.53;;
11893;SDS011;6006;49.696;8.662;2023-05-08T02:12:55;4.00;;;3.70;;
11893;SDS011;6006;49.696;8.662;2023-05-08T02:15:24;4.93;;;4.53;;
11893;SDS011;6006;49.696;8.662;2023-05-08T02:17:54;10.90;;;6.50;;
11893;SDS011;6006;49.696;8.662;2023-05-08T02:20:24;8.57;;;6.90;;
11893;SDS011;6006;49.696;8.662;2023-05-08T02:22:52;10.13;;;7.20;;
11893;SDS011;6006;49.696;8.662;2023-05-08T02:25:20;7.90;;;6.53;;
11893;SDS011;6006;49.696;8.662;2023-05-08T02:27:49;7.83;;;7.13;;
11893;SDS011;6006;49.696;8.662;2023-05-08T02:30:18;11.37;;;6.90;;
11893;SDS011;6006;49.696;8.662;2023-05-08T02:32:49;8.50;;;7.13;;
11893;SDS011;6006;49.696;8.662;2023-05-08T02:35:17;8.73;;;6.70;;
11893;SDS011;6006;49.696;8.662;2023-05-08T02:37:48;7.07;;;6.37;;
11893;SDS011;6006;49.696;8.662;2023-05-08T02:40:17;7.73;;;6.97;;
11893;SDS011;6006;49.696;8.662;2023-05-08T02:42:47;9.37;;;6.40;;
11893;SDS011;6006;49.696;8.662;2023-05-08T02:45:14;7.27;;;6.57;;
11893;SDS011;6006;49.696;8.662;2023-05-08T02:47:42;6.80;;;6.13;;
11893;SDS011;6006;49.696;8.662;2023-05-08T02:50:14;7.70;;;6.60;;
11893;SDS011;6006;49.696;8.662;2023-05-08T02:52:44;8.20;;;6.43;;
11893;SDS011;6006;49.696;8.662;2023-05-08T02:55:25;7.27;;;6.57;;
11893;SDS011;6006;49.696;8.662;2023-05-08T02:58:01;7.37;;;6.27;;
11893;SDS011;6006;49.696;8.662;2023-05-08T03:00:36;11.40;;;6.90;;
11893;SDS011;6006;49.696;8.662;2023-05-08T03:03:11;10.13;;;7.40;;
11893;SDS011;6006;49.696;8.662;2023-05-08T03:05:44;9.63;;;6.80;;
11893;SDS011;6006;49.696;8.662;2023-05-08T03:08:19;7.17;;;6.47;;
11893;SDS011;6006;49.696;8.662;2023-05-08T03:10:51;8.47;;;7.00;;
11893;SDS011;6006;49.696;8.662;2023-05-08T03:13:22;9.17;;;7.00;;
11893;SDS011;6006;49.696;8.662;2023-05-08T03:15:51;8.23;;;6.63;;
11893;SDS011;6006;49.696;8.662;2023-05-08T03:18:21;8.93;;;6.67;;
11893;SDS011;6006;49.696;8.662;2023-05-08T03:20:51;8.07;;;6.73;;
11893;SDS011;6006;49.696;8.662;2023-05-08T03:23:22;7.20;;;6.53;;
11893;SDS011;6006;49.696;8.662;2023-05-08T03:25:51;8.87;;;7.23;;
11893;SDS011;6006;49.696;8.662;2023-05-08T03:28:18;6.97;;;6.37;;
11893;SDS011;6006;49.696;8.662;2023-05-08T03:30:47;7.33;;;6.63;;
11893;SDS011;6006;49.696;8.662;2023-05-08T03:33:15;7.67;;;6.83;;
11893;SDS011;6006;49.696;8.662;2023-05-08T03:35:42;9.33;;;6.70;;
11893;SDS011;6006;49.696;8.662;2023-05-08T03:38:11;8.60;;;6.67;;
11893;SDS011;6006;49.696;8.662;2023-05-08T03:40:39;7.33;;;6.63;;
11893;SDS011;6006;49.696;8.662;2023-05-08T03:43:07;6.40;;;5.87;;
11893;SDS011;6006;49.696;8.662;2023-05-08T03:45:34;7.13;;;6.37;;
11893;SDS011;6006;49.696;8.662;2023-05-08T03:48:02;8.00;;;6.90;;
11893;SDS011;6006;49.696;8.662;2023-05-08T03:50:30;6.77;;;6.07;;
11893;SDS011;6006;49.696;8.662;2023-05-08T03:52:59;7.80;;;7.00;;
11893;SDS011;6006;49.696;8.662;2023-05-08T03:55:26;7.33;;;5.77;;
11893;SDS011;6006;49.696;8.662;2023-05-08T03:57:56;6.03;;;5.47;;
11893;SDS011;6006;49.696;8.662;2023-05-08T04:00:31;7.27;;;6.53;;
11893;SDS011;6006;49.696;8.662;2023-05-08T04:03:14;6.60;;;5.83;;
11893;SDS011;6006;49.696;8.662;2023-05-08T04:05:49;7.40;;;6.60;;
11893;SDS011;6006;49.696;8.662;2023-05-08T04:08:24;7.83;;;6.57;;
11893;SDS011;6006;49.696;8.662;2023-05-08T04:10:56;7.63;;;6.30;;
11893;SDS011;6006;49.696;8.662;2023-05-08T04:13:31;7.07;;;5.97;;
11893;SDS011;6006;49.696;8.662;2023-05-08T04:16:04;6.90;;;6.30;;
11893;SDS011;6006;49.696;8.662;2023-05-08T04:18:35;8.03;;;6.93;;
11893;SDS011;6006;49.696;8.662;2023-05-08T04:21:05;6.60;;;5.90;;
11893;SDS011;6006;49.696;8.662;2023-05-08T04:23:35;7.30;;;6.57;;
11893;SDS011;6006;49.696;8.662;2023-05-08T04:26:05;7.63;;;6.37;;
11893;SDS011;6006;49.696;8.662;2023-05-08T04:28:35;7.97;;;6.53;;
11893;SDS011;6006;49.696;8.662;2023-05-08T04:31:02;9.00;;;6.60;;
11893;SDS011;6006;49.696;8.662;2023-05-08T04:33:30;7.70;;;6.90;;
11893;SDS011;6006;49.696;8.662;2023-05-08T04:35:59;10.70;;;6.80;;
11893;SDS011;6006;49.696;8.662;2023-05-08T04:38:27;8.23;;;6.73;;
11893;SDS011;6006;49.696;8.662;2023-05-08T04:40:54;7.97;;;7.20;;
11893;SDS011;6006;49.696;8.662;2023-05-08T04:43:21;12.00;;;7.70;;
11893;SDS011;6006;49.696;8.662;2023-05-08T04:45:49;8.23;;;7.20;;
11893;SDS011;6006;49.696;8.662;2023-05-08T04:48:16;8.37;;;7.03;;
11893;SDS011;6006;49.696;8.662;2023-05-08T04:50:43;7.97;;;6.73;;
11893;SDS011;6006;49.696;8.662;2023-05-08T04:53:10;9.70;;;8.03;;
11893;SDS011;6006;49.696;8.662;2023-05-08T04:55:36;8.90;;;8.00;;
11893;SDS011;6006;49.696;8.662;2023-05-08T04:58:03;8.33;;;7.23;;
11893;SDS011;6006;49.696;8.662;2023-05-08T05:00:30;8.20;;;7.00;;
11893;SDS011;6006;49.696;8.662;2023-05-08T05:02:58;7.77;;;7.07;;
11893;SDS011;6006;49.696;8.662;2023-05-08T05:05:25;9.07;;;7.07;;
11893;SDS011;6006;49.696;8.662;2023-05-08T05:07:52;7.13;;;6.53;;
11893;SDS011;6006;49.696;8.662;2023-05-08T05:10:19;6.90;;;6.20;;
11893;SDS011;6006;49.696;8.662;2023-05-08T05:12:46;7.97;;;7.03;;
11893;SDS011;6006;49.696;8.662;2023-05-08T05:15:13;8.30;;;7.50;;
11893;SDS011;6006;49.696;8.662;2023-05-08T05:17:40;7.97;;;7.17;;
11893;SDS011;6006;49.696;8.662;2023-05-08T05:20:08;8.13;;;7.33;;
11893;SDS011;6006;49.696;8.662;2023-05-08T05:22:36;8.27;;;7.40;;
11893;SDS011;6006;49.696;8.662;2023-05-08T05:25:03;10.27;;;7.50;;
11893;SDS011;6006;49.696;8.662;2023-05-08T05:27:32;15.63;;;8.07;;
11893;SDS011;6006;49.696;8.662;2023-05-08T05:30:00;8.47;;;7.67;;
11893;SDS011;6006;49.696;8.662;2023-05-08T05:32:27;8.10;;;7.37;;
11893;SDS011;6006;49.696;8.662;2023-05-08T05:34:54;8.10;;;7.30;;
11893;SDS011;6006;49.696;8.662;2023-05-08T05:37:22;8.63;;;7.83;;
11893;SDS011;6006;49.696;8.662;2023-05-08T05:39:49;9.20;;;8.13;;
11893;SDS011;6006;49.696;8.662;2023-05-08T05:42:16;9.87;;;7.67;;
11893;SDS011;6006;49.696;8.662;2023-05-08T05:44:43;8.80;;;7.90;;
11893;SDS011;6006;49.696;8.662;2023-05-08T05:47:10;9.37;;;7.70;;
11893;SDS011;6006;49.696;8.662;2023-05-08T05:49:36;9.50;;;7.70;;
11893;SDS011;6006;49.696;8.662;2023-05-08T05:52:07;9.20;;;8.00;;
11893;SDS011;6006;49.696;8.662;2023-05-08T05:54:35;10.07;;;7.70;;
11893;SDS011;6006;49.696;8.662;2023-05-08T05:57:02;8.60;;;7.70;;
11893;SDS011;6006;49.696;8.662;2023-05-08T05:59:29;9.03;;;7.77;;
11893;SDS011;6006;49.696;8.662;2023-05-08T06:01:56;8.37;;;7.50;;
11893;SDS011;6006;49.696;8.662;2023-05-08T06:04:22;8.27;;;7.37;;
11893;SDS011;6006;49.696;8.662;2023-05-08T06:06:50;9.50;;;7.63;;
11893;SDS011;6006;49.696;8.662;2023-05-08T06:09:17;8.03;;;7.13;;
11893;SDS011;6006;49.696;8.662;2023-05-08T06:11:46;8.43;;;7.67;;
11893;SDS011;6006;49.696;8.662;2023-05-08T06:14:12;9.67;;;8.03;;
11893;SDS011;6006;49.696;8.662;2023-05-08T06:16:39;10.60;;;8.60;;
11893;SDS011;6006;49.696;8.662;2023-05-08T06:19:06;9.87;;;8.03;;
11893;SDS011;6006;49.696;8.662;2023-05-08T06:21:33;8.03;;;7.23;;
11893;SDS011;6006;49.696;8.662;2023-05-08T06:24:01;8.83;;;7.93;;
11893;SDS011;6006;49.696;8.662;2023-05-08T06:26:30;10.00;;;8.63;;
11893;SDS011;6006;49.696;8.662;2023-05-08T06:28:58;8.93;;;7.50;;
11893;SDS011;6006;49.696;8.662;2023-05-08T06:31:25;8.23;;;7.43;;
11893;SDS011;6006;49.696;8.662;2023-05-08T06:33:52;8.27;;;7.47;;
11893;SDS011;6006;49.696;8.662;2023-05-08T06:36:19;9.03;;;7.40;;
11893;SDS011;6006;49.696;8.662;2023-05-08T06:38:46;8.67;;;7.77;;
11893;SDS011;6006;49.696;8.662;2023-05-08T06:41:13;8.57;;;7.50;;
11893;SDS011;6006;49.696;8.662;2023-05-08T06:43:39;8.57;;;7.60;;
11893;SDS011;6006;49.696;8.662;2023-05-08T06:46:08;8.50;;;7.47;;
11893;SDS011;6006;49.696;8.662;2023-05-08T06:48:34;7.10;;;6.40;;
11893;SDS011;6006;49.696;8.662;2023-05-08T06:51:01;7.73;;;6.93;;
11893;SDS011;6006;49.696;8.662;2023-05-08T06:53:28;7.03;;;6.27;;
11893;SDS011;6006;49.696;8.662;2023-05-08T06:55:55;7.70;;;6.90;;
11893;SDS011;6006;49.696;8.662;2023-05-08T06:58:22;7.93;;;7.23;;
11893;SDS011;6006;49.696;8.662;2023-05-08T07:00:50;8.43;;;7.27;;
11893;SDS011;6006;49.696;8.662;2023-05-08T07:03:18;7.70;;;6.87;;
11893;SDS011;6006;49.696;8.662;2023-05-08T07:05:45;7.97;;;6.43;;
11893;SDS011;6006;49.696;8.662;2023-05-08T07:08:12;7.40;;;6.57;;
11893;SDS011;6006;49.696;8.662;2023-05-08T07:10:38;7.73;;;6.90;;
11893;SDS011;6006;49.696;8.662;2023-05-08T07:13:05;7.10;;;6.20;;
11893;SDS011;6006;49.696;8.662;2023-05-08T07:15:32;10.10;;;6.47;;
11893;SDS011;6006;49.696;8.662;2023-05-08T07:17:59;7.93;;;6.03;;
11893;SDS011;6006;49.696;8.662;2023-05-08T07:20:28;9.30;;;7.07;;
11893;SDS011;6006;49.696;8.662;2023-05-08T07:22:55;7.57;;;6.87;;
11893;SDS011;6006;49.696;8.662;2023-05-08T07:25:22;8.70;;;7.80;;
11893;SDS011;6006;49.696;8.662;2023-05-08T07:27:48;8.27;;;7.47;;
11893;SDS011;6006;49.696;8.662;2023-05-08T07:30:15;10.17;;;7.40;;
11893;SDS011;6006;49.696;8.662;2023-05-08T07:32:42;12.10;;;8.37;;
11893;SDS011;6006;49.696;8.662;2023-05-08T07:35:09;8.73;;;7.83;;
11893;SDS011;6006;49.696;8.662;2023-05-08T07:37:38;8.83;;;6.93;;
11893;SDS011;6006;49.696;8.662;2023-05-08T07:40:05;11.87;;;7.77;;
11893;SDS011;6006;49.696;8.662;2023-05-08T07:42:36;8.73;;;7.27;;
11893;SDS011;6006;49.696;8.662;2023-05-08T07:45:04;7.97;;;7.23;;
11893;SDS011;6006;49.696;8.662;2023-05-08T07:47:32;8.50;;;7.70;;
11893;SDS011;6006;49.696;8.662;2023-05-08T07:49:59;10.53;;;8.20;;
11893;SDS011;6006;49.696;8.662;2023-05-08T07:52:26;9.63;;;7.63;;
11893;SDS011;6006;49.696;8.662;2023-05-08T07:54:54;8.10;;;7.30;;
11893;SDS011;6006;49.696;8.662;2023-05-08T07:57:22;9.23;;;7.83;;
11893;SDS011;6006;49.696;8.662;2023-05-08T07:59:49;8.90;;;7.10;;
11893;SDS011;6006;49.696;8.662;2023-05-08T08:02:15;8.23;;;7.30;;
11893;SDS011;6006;49.696;8.662;2023-05-08T08:04:42;8.43;;;7.50;;
11893;SDS011;6006;49.696;8.662;2023-05-08T08:07:09;8.63;;;7.37;;
11893;SDS011;6006;49.696;8.662;2023-05-08T08:09:36;7.97;;;7.17;;
11893;SDS011;6006;49.696;8.662;2023-05-08T08:12:04;8.43;;;7.63;;
11893;SDS011;6006;49.696;8.662;2023-05-08T08:14:31;10.27;;;7.83;;
11893;SDS011;6006;49.696;8.662;2023-05-08T08:16:58;7.83;;;7.13;;
11893;SDS011;6006;49.696;8.662;2023-05-08T08:19:25;8.40;;;7.47;;
11893;SDS011;6006;49.696;8.662;2023-05-08T08:21:52;8.03;;;7.23;;
11893;SDS011;6006;49.696;8.662;2023-05-08T08:24:18;8.60;;;7.53;;
11893;SDS011;6006;49.696;8.662;2023-05-08T08:26:45;9.03;;;7.73;;
11893;SDS011;6006;49.696;8.662;2023-05-08T08:29:13;9.00;;;8.10;;
11893;SDS011;6006;49.696;8.662;2023-05-08T08:31:40;8.63;;;7.73;;
11893;SDS011;6006;49.696;8.662;2023-05-08T08:34:07;8.10;;;7.30;;
11893;SDS011;6006;49.696;8.662;2023-05-08T08:36:34;9.20;;;7.57;;
11893;SDS011;6006;49.696;8.662;2023-05-08T08:39:01;8.87;;;7.80;;
11893;SDS011;6006;49.696;8.662;2023-05-08T08:41:28;7.90;;;7.10;;
11893;SDS011;6006;49.696;8.662;2023-05-08T08:43:55;7.88;;;7.07;;
11893;SDS011;6006;49.696;8.662;2023-05-08T08:46:24;8.27;;;7.47;;
11893;SDS011;6006;49.696;8.662;2023-05-08T08:48:52;8.63;;;7.75;;
11893;SDS011;6006;49.696;8.662;2023-05-08T08:51:23;9.40;;;7.28;;
11893;SDS011;6006;49.696;8.662;2023-05-08T08:53:53;7.47;;;6.75;;
11893;SDS011;6006;49.696;8.662;2023-05-08T08:56:28;10.15;;;7.15;;
11893;SDS011;6006;49.696;8.662;2023-05-08T08:58:57;7.90;;;7.13;;
11893;SDS011;6006;49.696;8.662;2023-05-08T09:01:26;7.05;;;6.45;;
11893;SDS011;6006;49.696;8.662;2023-05-08T09:03:55;8.70;;;6.70;;
11893;SDS011;6006;49.696;8.662;2023-05-08T09:06:23;7.45;;;6.75;;
11893;SDS011;6006;49.696;8.662;2023-05-08T09:08:52;7.88;;;7.07;;
11893;SDS011;6006;49.696;8.662;2023-05-08T09:11:21;7.32;;;6.63;;
11893;SDS011;6006;49.696;8.662;2023-05-08T09:13:48;8.40;;;6.25;;
11893;SDS011;6006;49.696;8.662;2023-05-08T09:16:16;7.70;;;6.60;;
11893;SDS011;6006;49.696;8.662;2023-05-08T09:18:45;8.85;;;7.40;;
11893;SDS011;6006;49.696;8.662;2023-05-08T09:21:12;7.25;;;6.55;;
11893;SDS011;6006;49.696;8.662;2023-05-08T09:23:53;7.60;;;6.55;;
11893;SDS011;6006;49.696;8.662;2023-05-08T09:26:27;7.40;;;6.78;;
11893;SDS011;6006;49.696;8.662;2023-05-08T09:29:09;8.80;;;7.05;;
11893;SDS011;6006;49.696;8.662;2023-05-08T09:31:38;7.78;;;6.63;;
11893;SDS011;6006;49.696;8.662;2023-05-08T09:34:07;7.47;;;6.78;;
11893;SDS011;6006;49.696;8.662;2023-05-08T09:36:35;7.22;;;6.47;;
11893;SDS011;6006;49.696;8.662;2023-05-08T09:39:04;7.20;;;6.60;;
11893;SDS011;6006;49.696;8.662;2023-05-08T09:41:35;7.28;;;6.28;;
11893;SDS011;6006;49.696;8.662;2023-05-08T09:44:02;7.85;;;6.40;;
11893;SDS011;6006;49.696;8.662;2023-05-08T09:46:31;7.20;;;6.60;;
11893;SDS011;6006;49.696;8.662;2023-05-08T09:48:59;8.95;;;6.78;;
11893;SDS011;6006;49.696;8.662;2023-05-08T09:51:30;6.78;;;6.10;;
11893;SDS011;6006;49.696;8.662;2023-05-08T09:53:57;8.10;;;6.15;;
11893;SDS011;6006;49.696;8.662;2023-05-08T09:56:31;7.07;;;6.47;;
11893;SDS011;6006;49.696;8.662;2023-05-08T09:58:59;6.18;;;5.55;;
11893;SDS011;6006;49.696;8.662;2023-05-08T10:01:28;7.72;;;6.43;;
11893;SDS011;6006;49.696;8.662;2023-05-08T10:03:56;6.88;;;6.20;;
11893;SDS011;6006;49.696;8.662;2023-05-08T10:06:23;6.63;;;5.97;;
11893;SDS011;6006;49.696;8.662;2023-05-08T10:09:09;5.22;;;4.82;;
11893;SDS011;6006;49.696;8.662;2023-05-08T10:11:37;7.72;;;5.95;;
11893;SDS011;6006;49.696;8.662;2023-05-08T10:14:05;6.25;;;5.65;;
11893;SDS011;6006;49.696;8.662;2023-05-08T10:16:35;6.47;;;5.28;;
11893;SDS011;6006;49.696;8.662;2023-05-08T10:19:09;6.63;;;6.03;;
11893;SDS011;6006;49.696;8.662;2023-05-08T10:21:40;5.68;;;5.18;;
11893;SDS011;6006;49.696;8.662;2023-05-08T10:24:12;6.55;;;5.97;;
11893;SDS011;6006;49.696;8.662;2023-05-08T10:26:41;6.85;;;6.25;;
11893;SDS011;6006;49.696;8.662;2023-05-08T10:29:12;6.63;;;5.75;;
11893;SDS011;6006;49.696;8.662;2023-05-08T10:31:44;6.72;;;6.13;;
11893;SDS011;6006;49.696;8.662;2023-05-08T10:34:12;6.30;;;5.78;;
11893;SDS011;6006;49.696;8.662;2023-05-08T10:36:43;7.53;;;6.53;;
11893;SDS011;6006;49.696;8.662;2023-05-08T10:39:13;7.35;;;6.53;;
11893;SDS011;6006;49.696;8.662;2023-05-08T10:41:41;7.82;;;7.00;;
11893;SDS011;6006;49.696;8.662;2023-05-08T10:44:08;6.32;;;5.72;;
11893;SDS011;6006;49.696;8.662;2023-05-08T10:46:36;7.30;;;6.63;;
11893;SDS011;6006;49.696;8.662;2023-05-08T10:49:12;6.68;;;6.03;;
11893;SDS011;6006;49.696;8.662;2023-05-08T10:51:46;7.00;;;6.40;;
11893;SDS011;6006;49.696;8.662;2023-05-08T10:54:25;7.50;;;6.75;;
11893;SDS011;6006;49.696;8.662;2023-05-08T10:57:08;7.60;;;6.85;;
11893;SDS011;6006;49.696;8.662;2023-05-08T10:59:36;7.03;;;6.20;;
11893;SDS011;6006;49.696;8.662;2023-05-08T11:02:03;7.80;;;7.10;;
11893;SDS011;6006;49.696;8.662;2023-05-08T11:04:32;7.93;;;7.13;;
11893;SDS011;6006;49.696;8.662;2023-05-08T11:06:59;9.65;;;7.43;;
11893;SDS011;6006;49.696;8.662;2023-05-08T11:09:30;7.55;;;6.68;;
11893;SDS011;6006;49.696;8.662;2023-05-08T11:12:19;8.27;;;5.90;;
11893;SDS011;6006;49.696;8.662;2023-05-08T11:14:56;7.45;;;6.75;;
11893;SDS011;6006;49.696;8.662;2023-05-08T11:17:26;7.20;;;6.60;;
11893;SDS011;6006;49.696;8.662;2023-05-08T11:19:55;6.28;;;5.68;;
11893;SDS011;6006;49.696;8.662;2023-05-08T11:22:24;6.13;;;5.53;;
11893;SDS011;6006;49.696;8.662;2023-05-08T11:24:56;6.97;;;6.30;;
11893;SDS011;6006;49.696;8.662;2023-05-08T11:30:34;6.97;;;6.38;;
11893;SDS011;6006;49.696;8.662;2023-05-08T11:35:57;6.78;;;6.07;;
11893;SDS011;6006;49.696;8.662;2023-05-08T11:38:29;7.85;;;6.55;;
11893;SDS011;6006;49.696;8.662;2023-05-08T11:41:00;7.40;;;6.60;;
11893;SDS011;6006;49.696;8.662;2023-05-08T11:46:42;6.88;;;6.18;;
11893;SDS011;6006;49.696;8.662;2023-05-08T11:49:15;7.35;;;6.65;;
11893;SDS011;6006;49.696;8.662;2023-05-08T11:51:44;6.80;;;6.20;;
11893;SDS011;6006;49.696;8.662;2023-05-08T11:54:12;6.47;;;5.88;;
11893;SDS011;6006;49.696;8.662;2023-05-08T11:56:42;6.90;;;6.30;;
11893;SDS011;6006;49.696;8.662;2023-05-08T11:59:11;8.20;;;6.88;;
11893;SDS011;6006;49.696;8.662;2023-05-08T12:01:37;6.88;;;6.25;;
11893;SDS011;6006;49.696;8.662;2023-05-08T12:04:05;7.10;;;6.55;;
11893;SDS011;6006;49.696;8.662;2023-05-08T12:06:33;7.47;;;6.65;;
11893;SDS011;6006;49.696;8.662;2023-05-08T12:09:02;8.68;;;6.25;;
11893;SDS011;6006;49.696;8.662;2023-05-08T12:11:34;6.90;;;6.18;;
11893;SDS011;6006;49.696;8.662;2023-05-08T12:14:02;6.22;;;5.63;;
11893;SDS011;6006;49.696;8.662;2023-05-08T12:16:33;6.30;;;5.80;;
11893;SDS011;6006;49.696;8.662;2023-05-08T12:19:00;6.72;;;6.00;;
11893;SDS011;6006;49.696;8.662;2023-05-08T12:21:27;5.95;;;5.40;;
11893;SDS011;6006;49.696;8.662;2023-05-08T12:23:54;7.10;;;6.50;;
11893;SDS011;6006;49.696;8.662;2023-05-08T12:26:22;6.80;;;6.10;;
11893;SDS011;6006;49.696;8.662;2023-05-08T12:28:53;8.05;;;7.35;;
11893;SDS011;6006;49.696;8.662;2023-05-08T12:31:22;7.75;;;7.05;;
11893;SDS011;6006;49.696;8.662;2023-05-08T12:33:49;7.47;;;6.78;;
11893;SDS011;6006;49.696;8.662;2023-05-08T12:36:16;7.45;;;6.53;;
11893;SDS011;6006;49.696;8.662;2023-05-08T12:38:43;7.43;;;6.75;;
11893;SDS011;6006;49.696;8.662;2023-05-08T12:41:10;6.72;;;6.10;;
11893;SDS011;6006;49.696;8.662;2023-05-08T12:43:37;8.27;;;7.43;;
11893;SDS011;6006;49.696;8.662;2023-05-08T12:46:04;8.73;;;7.22;;
11893;SDS011;6006;49.696;8.662;2023-05-08T12:48:38;9.40;;;8.48;;
11893;SDS011;6006;49.696;8.662;2023-05-08T12:51:04;9.93;;;7.90;;
11893;SDS011;6006;49.696;8.662;2023-05-08T12:53:32;9.18;;;8.15;;
11893;SDS011;6006;49.696;8.662;2023-05-08T12:56:00;10.88;;;8.82;;
11893;SDS011;6006;49.696;8.662;2023-05-08T12:58:29;9.00;;;7.90;;
11893;SDS011;6006;49.696;8.662;2023-05-08T13:01:04;9.40;;;8.43;;
11893;SDS011;6006;49.696;8.662;2023-05-08T13:03:34;8.52;;;7.72;;
11893;SDS011;6006;49.696;8.662;2023-05-08T13:06:02;8.75;;;7.95;;
11893;SDS011;6006;49.696;8.662;2023-05-08T13:08:30;8.27;;;7.47;;
11893;SDS011;6006;49.696;8.662;2023-05-08T13:10:58;8.63;;;7.78;;
11893;SDS011;6006;49.696;8.662;2023-05-08T13:13:26;9.52;;;8.43;;
11893;SDS011;6006;49.696;8.662;2023-05-08T13:15:55;8.93;;;8.02;;
11893;SDS011;6006;49.696;8.662;2023-05-08T13:18:23;7.88;;;7.18;;
11893;SDS011;6006;49.696;8.662;2023-05-08T13:20:51;7.95;;;7.20;;
11893;SDS011;6006;49.696;8.662;2023-05-08T13:23:19;7.22;;;6.53;;
11893;SDS011;6006;49.696;8.662;2023-05-08T13:25:46;7.03;;;6.43;;
11893;SDS011;6006;49.696;8.662;2023-05-08T13:28:13;7.22;;;6.20;;
11893;SDS011;6006;49.696;8.662;2023-05-08T13:30:40;7.13;;;5.85;;
11893;SDS011;6006;49.696;8.662;2023-05-08T13:33:07;7.05;;;6.45;;
11893;SDS011;6006;49.696;8.662;2023-05-08T13:35:34;8.60;;;6.60;;
11893;SDS011;6006;49.696;8.662;2023-05-08T13:38:01;6.25;;;5.75;;
11893;SDS011;6006;49.696;8.662;2023-05-08T13:40:29;7.25;;;6.57;;
11893;SDS011;6006;49.696;8.662;2023-05-08T13:42:57;6.53;;;5.65;;
11893;SDS011;6006;49.696;8.662;2023-05-08T13:45:24;6.70;;;5.60;;
11893;SDS011;6006;49.696;8.662;2023-05-08T13:47:50;7.97;;;6.18;;
11893;SDS011;6006;49.696;8.662;2023-05-08T13:50:17;6.15;;;5.65;;
11893;SDS011;6006;49.696;8.662;2023-05-08T13:52:45;6.80;;;6.13;;
11893;SDS011;6006;49.696;8.662;2023-05-08T13:55:13;6.32;;;5.82;;
11893;SDS011;6006;49.696;8.662;2023-05-08T13:57:41;7.00;;;6.35;;
11893;SDS011;6006;49.696;8.662;2023-05-08T14:00:08;8.25;;;6.75;;
11893;SDS011;6006;49.696;8.662;2023-05-08T14:02:36;7.63;;;7.00;;
11893;SDS011;6006;49.696;8.662;2023-05-08T14:05:03;7.28;;;6.57;;
11893;SDS011;6006;49.696;8.662;2023-05-08T14:07:32;6.75;;;5.85;;
11893;SDS011;6006;49.696;8.662;2023-05-08T14:09:59;7.03;;;6.30;;
11893;SDS011;6006;49.696;8.662;2023-05-08T14:12:25;7.03;;;6.38;;
11893;SDS011;6006;49.696;8.662;2023-05-08T14:14:54;7.75;;;6.90;;
11893;SDS011;6006;49.696;8.662;2023-05-08T14:17:20;7.43;;;6.57;;
11893;SDS011;6006;49.696;8.662;2023-05-08T14:19:47;6.53;;;6.03;;
11893;SDS011;6006;49.696;8.662;2023-05-08T14:22:14;6.65;;;6.05;;
11893;SDS011;6006;49.696;8.662;2023-05-08T14:24:41;5.90;;;5.43;;
11893;SDS011;6006;49.696;8.662;2023-05-08T14:27:08;6.97;;;6.38;;
11893;SDS011;6006;49.696;8.662;2023-05-08T14:29:35;7.07;;;6.47;;
11893;SDS011;6006;49.696;8.662;2023-05-08T14:32:03;7.88;;;6.65;;
11893;SDS011;6006;49.696;8.662;2023-05-08T14:34:30;7.68;;;6.97;;
11893;SDS011;6006;49.696;8.662;2023-05-08T14:36:57;7.05;;;6.35;;
11893;SDS011;6006;49.696;8.662;2023-05-08T14:39:24;6.97;;;6.25;;
11893;SDS011;6006;49.696;8.662;2023-05-08T14:41:51;7.78;;;7.05;;
11893;SDS011;6006;49.696;8.662;2023-05-08T14:44:18;7.32;;;6.72;;
11893;SDS011;6006;49.696;8.662;2023-05-08T14:46:44;8.77;;;6.72;;
11893;SDS011;6006;49.696;8.662;2023-05-08T14:49:13;7.32;;;6.60;;
11893;SDS011;6006;49.696;8.662;2023-05-08T14:51:40;6.05;;;5.55;;
11893;SDS011;6006;49.696;8.662;2023-05-08T14:54:06;6.78;;;6.18;;
11893;SDS011;6006;49.696;8.662;2023-05-08T14:56:33;6.88;;;6.28;;
11893;SDS011;6006;49.696;8.662;2023-05-08T14:59:00;7.82;;;7.13;;
11893;SDS011;6006;49.696;8.662;2023-05-08T15:01:27;7.47;;;6.65;;
11893;SDS011;6006;49.696;8.662;2023-05-08T15:03:54;6.80;;;6.28;;
11893;SDS011;6006;49.696;8.662;2023-05-08T15:06:22;6.68;;;6.07;;
11893;SDS011;6006;49.696;8.662;2023-05-08T15:08:51;7.68;;;6.95;;
11893;SDS011;6006;49.696;8.662;2023-05-08T15:11:18;6.55;;;5.95;;
11893;SDS011;6006;49.696;8.662;2023-05-08T15:13:46;6.30;;;5.70;;
11893;SDS011;6006;49.696;8.662;2023-05-08T15:16:13;6.82;;;6.22;;
11893;SDS011;6006;49.696;8.662;2023-05-08T15:18:40;6.07;;;5.57;;
11893;SDS011;6006;49.696;8.662;2023-05-08T15:21:07;6.38;;;5.78;;
11893;SDS011;6006;49.696;8.662;2023-05-08T15:23:35;6.13;;;5.03;;